Monday, November 20, 2017, 4:24 AM EST

KJYO, Leesburg / Godfrey

Location: Leesburg, VA, United States Lat: 39.083
Local Time: 4:24 AM EST ( 9:24 GMT) Lon: -77.567
Time Zone: US/Eastern Elev: 390 ft

Show me the last for .
Show Decoded

2017-11-20 03:55 METAR KJYO 200855Z AUTO 31017G28KT 10SM CLR 04/M03 A3006 RMK AO2 =
2017-11-20 03:35 METAR KJYO 200835Z AUTO 30019G24KT 10SM CLR 04/M03 A3005 RMK AO2 =
2017-11-20 03:15 METAR KJYO 200815Z AUTO 30017G21KT 10SM SCT050 04/M03 A3005 RMK AO2 =
2017-11-20 02:55 METAR KJYO 200755Z AUTO 31015G23KT 10SM SCT050 04/M03 A3006 RMK AO2 =
2017-11-20 02:35 METAR KJYO 200735Z AUTO 31015KT 10SM SCT050 05/M03 A3005 RMK AO2 =
2017-11-20 02:15 METAR KJYO 200715Z AUTO 31013G23KT 10SM BKN050 05/M03 A3003 RMK AO2 =
2017-11-20 01:55 METAR KJYO 200655Z AUTO 31012G24KT 270V330 10SM OVC050 05/M02 A3002 RMK AO2 =
2017-11-20 01:35 METAR KJYO 200635Z AUTO 30018G26KT 10SM OVC050 05/M02 A3002 RMK AO2 =
2017-11-20 01:15 METAR KJYO 200615Z AUTO 30015G19KT 10SM BKN050 05/M01 A3001 RMK AO2 =
2017-11-20 00:55 METAR KJYO 200555Z AUTO 31009KT 10SM SCT050 BKN055 05/00 A3001 RMK AO2 =
2017-11-20 00:35 METAR KJYO 200535Z AUTO 32009KT 10SM BKN050 OVC055 05/00 A3000 RMK AO2 =
2017-11-20 00:15 METAR KJYO 200515Z AUTO 33005KT 10SM BKN049 OVC055 05/00 A2999 RMK AO2 =
2017-11-19 23:55 METAR KJYO 200455Z AUTO 33007KT 10SM OVC060 05/00 A2998 RMK AO2 =
2017-11-19 23:35 METAR KJYO 200435Z AUTO 35005KT 10SM OVC060 05/00 A2998 RMK AO2 =
2017-11-19 23:15 METAR KJYO 200415Z AUTO 33006KT 10SM SCT045 BKN050 BKN070 05/00 A2997 RMK AO2 =
2017-11-19 22:55 METAR KJYO 200355Z AUTO 33007KT 10SM BKN044 OVC050 06/00 A2997 RMK AO2 =
2017-11-19 22:35 METAR KJYO 200335Z AUTO 31008KT 10SM SCT041 BKN050 OVC065 06/00 A2996 RMK AO2 =
2017-11-19 22:15 METAR KJYO 200315Z AUTO 31014G21KT 270V330 10SM OVC065 06/00 A2995 RMK AO2 =
2017-11-19 21:55 METAR KJYO 200255Z AUTO 30016G20KT 10SM OVC065 06/00 A2994 RMK AO2 =
2017-11-19 21:35 METAR KJYO 200235Z AUTO 30016G23KT 10SM BKN065 BKN075 06/00 A2994 RMK AO2 =
2017-11-19 21:15 METAR KJYO 200215Z AUTO 30014G20KT 10SM SCT075 06/00 A2993 RMK AO2 =
2017-11-19 20:55 METAR KJYO 200155Z AUTO 30013KT 10SM SCT050 OVC065 06/00 A2993 RMK AO2 =
2017-11-19 20:35 METAR KJYO 200135Z AUTO 30010G17KT 10SM BKN050 OVC065 06/00 A2992 RMK AO2 =
2017-11-19 20:15 METAR KJYO 200115Z AUTO 29010G15KT 10SM SCT055 OVC075 06/00 A2991 RMK AO2 =
2017-11-19 19:55 METAR KJYO 200055Z AUTO 29010G17KT 10SM OVC075 06/00 A2991 RMK AO2 =
2017-11-19 19:35 METAR KJYO 200035Z AUTO 28009G16KT 10SM SCT041 BKN065 OVC075 06/00 A2990 RMK AO2
                 =
2017-11-19 19:15 METAR KJYO 200015Z AUTO 30014G25KT 10SM SCT044 SCT050 OVC070 07/00 A2989 RMK AO2
                 =
2017-11-19 18:55 METAR KJYO 192355Z AUTO 30011G24KT 10SM SCT048 SCT060 BKN070 07/00 A2989 RMK AO2
                 =
2017-11-19 18:35 METAR KJYO 192335Z AUTO 30009G16KT 10SM SCT048 OVC065 07/00 A2988 RMK AO2 =
2017-11-19 18:15 METAR KJYO 192315Z AUTO 30008G16KT 10SM OVC065 07/00 A2987 RMK AO2 =
2017-11-19 17:55 METAR KJYO 192255Z AUTO 30009G18KT 10SM SCT055 OVC065 07/00 A2986 RMK AO2 =
2017-11-19 17:35 METAR KJYO 192235Z AUTO 30013G18KT 10SM SCT060 OVC065 07/00 A2986 RMK AO2 =
2017-11-19 17:15 METAR KJYO 192215Z AUTO 28006KT 10SM BKN060 07/00 A2985 RMK AO2 =
2017-11-19 16:55 METAR KJYO 192155Z AUTO 30011G16KT 10SM SCT050 BKN060 07/M01 A2984 RMK AO2 =
2017-11-19 16:35 METAR KJYO 192135Z AUTO 30007G12KT 10SM SCT049 BKN060 OVC070 07/00 A2984 RMK AO2
                 =
2017-11-19 16:15 METAR KJYO 192115Z AUTO 30014G26KT 10SM BKN060 BKN070 07/00 A2983 RMK AO2 =
2017-11-19 15:55 METAR KJYO 192055Z AUTO 31016G23KT 10SM SCT050 OVC060 07/00 A2982 RMK AO2 =
2017-11-19 15:35 METAR KJYO 192035Z AUTO 30011G20KT 10SM OVC050 07/00 A2981 RMK AO2 =
2017-11-19 15:15 METAR KJYO 192015Z AUTO 30012G22KT 10SM OVC050 08/00 A2980 RMK AO2 =
2017-11-19 14:55 METAR KJYO 191955Z AUTO 30013G18KT 10SM OVC050 08/00 A2979 RMK AO2 =
2017-11-19 14:35 METAR KJYO 191935Z AUTO 32013G22KT 10SM OVC050 08/M01 A2979 RMK AO2 =
2017-11-19 14:15 METAR KJYO 191915Z AUTO 34015G23KT 310V010 10SM OVC050 08/00 A2979 RMK AO2 =
2017-11-19 13:55 METAR KJYO 191855Z AUTO 31016G28KT 10SM BKN047 OVC050 08/00 A2978 RMK AO2 =
2017-11-19 13:35 METAR KJYO 191835Z AUTO 32019G24KT 10SM BKN047 OVC050 08/00 A2977 RMK AO2 =
2017-11-19 13:15 METAR KJYO 191815Z AUTO 32013G29KT 10SM BKN048 OVC055 08/00 A2977 RMK AO2 =
2017-11-19 12:55 METAR KJYO 191755Z AUTO 29012G26KT 10SM OVC050 10/00 A2977 RMK AO2 =
2017-11-19 12:35 METAR KJYO 191735Z AUTO 30021G28KT 10SM BKN050 09/00 A2977 RMK AO2 =
2017-11-19 12:15 METAR KJYO 191715Z AUTO 29021G30KT 10SM OVC046 08/00 A2977 RMK AO2 =
2017-11-19 11:55 METAR KJYO 191655Z AUTO 30022G31KT 10SM SCT044 OVC050 08/01 A2977 RMK AO2 =
2017-11-19 11:35 METAR KJYO 191635Z AUTO 31022G28KT 10SM OVC047 09/01 A2976 RMK AO2 =
2017-11-19 11:15 METAR KJYO 191615Z AUTO 32018G26KT 10SM OVC047 10/01 A2975 RMK AO2 =
2017-11-19 10:55 METAR KJYO 191555Z AUTO 33020G30KT 10SM OVC047 10/01 A2974 RMK AO2 =
2017-11-19 10:35 METAR KJYO 191535Z AUTO 31016G27KT 10SM OVC046 09/01 A2974 RMK AO2 =
2017-11-19 10:15 METAR KJYO 191515Z AUTO 30023G32KT 10SM OVC046 09/02 A2972 RMK AO2 =
2017-11-19 09:55 METAR KJYO 191455Z AUTO 30025G35KT 10SM SCT043 OVC049 08/02 A2971 RMK AO2 =
2017-11-19 09:35 METAR KJYO 191435Z AUTO 31025G30KT 10SM OVC042 09/02 A2970 RMK AO2 =
2017-11-19 09:15 METAR KJYO 191415Z AUTO 30024G30KT 10SM OVC042 10/03 A2969 RMK AO2 =
2017-11-19 08:55 METAR KJYO 191355Z AUTO 32017G23KT 10SM OVC040 09/02 A2969 RMK AO2 =
2017-11-19 08:35 METAR KJYO 191335Z AUTO 30017G26KT 10SM OVC040 09/02 A2969 RMK AO2 =
2017-11-19 08:15 METAR KJYO 191315Z AUTO 30017G30KT 10SM OVC042 08/02 A2967 RMK AO2 =
2017-11-19 07:55 METAR KJYO 191255Z AUTO 32020G27KT 10SM BKN044 OVC050 08/01 A2965 RMK AO2 =
2017-11-19 07:35 METAR KJYO 191235Z AUTO 31015G31KT 10SM BKN044 08/01 A2963 RMK AO2 =
2017-11-19 07:15 METAR KJYO 191215Z AUTO 30020G27KT 10SM BKN044 08/01 A2962 RMK AO2 =
2017-11-19 06:55 METAR KJYO 191155Z AUTO 31023G31KT 10SM BKN044 08/01 A2960 RMK AO2 =
2017-11-19 06:35 METAR KJYO 191135Z AUTO 31014G22KT 10SM SCT044 SCT050 08/02 A2959 RMK AO2 =
2017-11-19 06:15 METAR KJYO 191115Z AUTO 31017G27KT 280V340 10SM BKN049 08/02 A2957 RMK AO2 =
2017-11-19 05:55 METAR KJYO 191055Z AUTO 28015G24KT 10SM SCT049 SCT055 10/03 A2955 RMK AO2 =
2017-11-19 05:35 METAR KJYO 191035Z AUTO 31027G36KT 10SM CLR 10/03 A2952 RMK AO2 =
2017-11-19 05:15 METAR KJYO 191015Z AUTO 31031G38KT 10SM CLR 11/04 A2950 RMK AO2 =
2017-11-19 04:55 METAR KJYO 190955Z AUTO 31027G40KT 10SM SCT065 SCT080 11/05 A2945 RMK AO2 =
2017-11-19 04:35 METAR KJYO 190935Z AUTO 32018G33KT 10SM SCT043 BKN055 BKN065 13/07 A2944 RMK AO2
                 =

Support USWX by starting your Amazon purchase here.